Time;durP1;ratioP1;P1;durP2;ratioP2;P2;SDS_P1;SDS_P2;PMS_P1;PMS_P2;Temp;Humidity;BMP_temperature;BMP_pressure;BME280_temperature;BME280_humidity;BME280_pressure;Samples;Min_cycle;Max_cycle;Signal;HPM_P1;HPM_P2
2023/05/28 00:02:34;;;;;;;6.07;2.00;;;;;;;10.88;50.24;100983.47;4232366;28;21473;-66
2023/05/28 00:05:00;;;;;;;6.67;1.80;;;;;;;10.76;51.21;100985.41;4233374;28;25484;-65
2023/05/28 00:07:30;;;;;;;5.90;1.90;;;;;;;10.72;51.39;100981.25;4232044;28;20402;-65
2023/05/28 00:09:57;;;;;;;8.00;2.00;;;;;;;10.65;51.96;100985.50;4228432;28;20286;-64
2023/05/28 00:12:24;;;;;;;7.47;1.90;;;;;;;10.61;52.29;100984.91;4222764;28;20691;-64
2023/05/28 00:14:51;;;;;;;12.50;2.13;;;;;;;10.55;53.23;100980.00;4235533;28;20983;-67
2023/05/28 00:17:18;;;;;;;5.00;2.00;;;;;;;10.61;51.96;100980.34;4231403;28;20280;-66
2023/05/28 00:19:45;;;;;;;6.30;1.83;;;;;;;10.66;51.76;100974.53;4229024;28;21982;-65
2023/05/28 00:22:12;;;;;;;6.90;1.90;;;;;;;10.69;51.19;100974.25;4225678;28;21341;-62
2023/05/28 00:24:38;;;;;;;6.73;1.80;;;;;;;10.59;51.45;100976.06;4230013;28;20581;-62
2023/05/28 00:27:06;;;;;;;5.30;1.97;;;;;;;10.61;50.79;100982.22;4235748;28;21103;-63
2023/05/28 00:29:33;;;;;;;4.20;1.70;;;;;;;10.57;51.31;100978.91;4226110;28;21885;-65
2023/05/28 00:31:59;;;;;;;4.57;1.93;;;;;;;10.64;50.45;100971.09;4225552;28;21531;-64
2023/05/28 00:34:26;;;;;;;6.17;1.80;;;;;;;10.60;50.42;100972.38;4227989;28;20268;-65
2023/05/28 00:36:53;;;;;;;4.03;1.57;;;;;;;10.57;50.65;100973.50;4234702;28;20329;-64
2023/05/28 00:39:20;;;;;;;5.17;1.80;;;;;;;10.64;50.45;100968.38;4231536;28;21773;-66
2023/05/28 00:41:47;;;;;;;9.23;1.90;;;;;;;10.65;50.05;100963.84;4224263;28;20289;-62
2023/05/28 00:44:13;;;;;;;6.37;1.73;;;;;;;10.56;50.13;100974.50;4234456;28;20642;-65
2023/05/28 00:46:42;;;;;;;8.17;2.17;;;;;;;10.44;50.65;100968.28;4238830;28;21728;-64
2023/05/28 00:49:10;;;;;;;2.87;1.37;;;;;;;10.37;51.12;100967.09;4215485;28;20231;-65
2023/05/28 00:51:37;;;;;;;3.57;1.53;;;;;;;10.23;51.88;100962.84;4225720;28;20615;-66
2023/05/28 00:54:04;;;;;;;4.77;1.50;;;;;;;10.12;52.75;100962.94;4230452;28;20235;-63
2023/05/28 00:56:31;;;;;;;8.77;2.30;;;;;;;10.12;53.04;100963.78;4233648;28;20309;-64
2023/05/28 00:59:00;;;;;;;7.73;1.93;;;;;;;10.16;52.89;100967.06;4219959;28;20231;-64
2023/05/28 01:01:27;;;;;;;6.57;2.03;;;;;;;10.22;52.74;100969.25;4226469;28;21737;-63
2023/05/28 01:03:54;;;;;;;4.03;1.90;;;;;;;10.22;53.00;100965.69;4234463;28;20357;-63
2023/05/28 01:06:21;;;;;;;7.37;2.00;;;;;;;10.21;53.02;100961.28;4230420;28;21162;-63
2023/05/28 01:08:49;;;;;;;6.73;1.97;;;;;;;10.14;53.60;100967.22;4233960;28;20852;-64
2023/05/28 01:11:17;;;;;;;6.20;2.13;;;;;;;10.12;53.41;100966.47;4228471;28;21158;-67
2023/05/28 01:13:45;;;;;;;8.63;2.10;;;;;;;10.09;53.69;100968.59;4221748;28;20232;-62
2023/05/28 01:16:12;;;;;;;4.87;2.10;;;;;;;10.10;53.97;100970.31;4224948;28;21981;-61
2023/05/28 01:18:44;;;;;;;8.97;2.50;;;;;;;9.95;54.82;100956.22;4223550;28;20228;-65
2023/05/28 01:21:11;;;;;;;10.77;2.30;;;;;;;9.88;54.85;100963.16;4234804;28;21117;-63
2023/05/28 01:23:45;;;;;;;4.97;2.13;;;;;;;9.82;55.17;100960.00;4234560;28;20233;-65
2023/05/28 01:26:13;;;;;;;8.37;2.43;;;;;;;9.73;55.94;100949.09;4225137;28;20235;-64
2023/05/28 01:28:44;;;;;;;5.83;2.47;;;;;;;9.68;55.70;100938.66;4228754;28;20235;-66
2023/05/28 01:31:11;;;;;;;5.57;2.10;;;;;;;9.60;56.12;100943.84;4236812;28;20310;-64
2023/05/28 01:33:41;;;;;;;12.30;2.60;;;;;;;9.48;56.84;100946.59;4232621;28;20242;-62
2023/05/28 01:36:19;;;;;;;7.47;2.57;;;;;;;9.42;56.59;100936.28;4213591;28;20475;-67
2023/05/28 01:38:47;;;;;;;9.73;2.13;;;;;;;9.51;55.86;100940.09;4232767;28;22257;-63
2023/05/28 01:41:14;;;;;;;4.50;1.80;;;;;;;9.69;55.42;100932.28;4236523;28;20308;-61
2023/05/28 01:43:42;;;;;;;4.93;2.10;;;;;;;9.65;55.43;100938.91;4230107;28;20237;-65
2023/05/28 01:46:09;;;;;;;10.33;2.00;;;;;;;9.62;55.13;100931.09;4236358;28;22211;-63
2023/05/28 01:48:36;;;;;;;7.10;2.23;;;;;;;9.65;55.02;100933.50;4234028;28;20228;-64
2023/05/28 01:51:03;;;;;;;5.93;1.90;;;;;;;9.55;55.01;100935.28;4212161;28;21144;-63
2023/05/28 01:53:29;;;;;;;8.47;2.13;;;;;;;9.47;55.56;100927.81;4232531;28;20297;-66
2023/05/28 01:55:56;;;;;;;12.13;2.27;;;;;;;9.54;55.11;100929.00;4232017;28;20429;-64
2023/05/28 01:58:23;;;;;;;9.20;2.33;;;;;;;9.54;54.97;100922.75;4226770;28;22899;-65
2023/05/28 02:01:01;;;;;;;7.63;2.20;;;;;;;9.57;54.83;100925.19;4224547;28;20231;-63
2023/05/28 02:03:28;;;;;;;7.40;2.20;;;;;;;9.60;54.56;100922.22;4231207;28;20544;-63
2023/05/28 02:05:55;;;;;;;16.17;2.17;;;;;;;9.62;54.59;100915.72;4231734;28;25696;-65
2023/05/28 02:08:22;;;;;;;7.97;2.23;;;;;;;9.73;53.99;100922.91;4230579;28;20247;-63
2023/05/28 02:10:48;;;;;;;6.80;2.13;;;;;;;9.64;54.41;100916.44;4233647;28;20239;-63
2023/05/28 02:13:16;;;;;;;6.13;2.40;;;;;;;9.62;54.44;100917.56;4247435;28;20239;-63
2023/05/28 02:15:44;;;;;;;5.63;2.00;;;;;;;9.59;54.47;100920.50;4236227;28;20231;-65
2023/05/28 02:18:10;;;;;;;8.60;2.30;;;;;;;9.61;54.43;100908.56;4240707;28;22099;-64
2023/05/28 02:20:37;;;;;;;7.17;2.50;;;;;;;9.47;55.48;100912.47;4231712;28;20434;-63
2023/05/28 02:23:03;;;;;;;9.40;2.23;;;;;;;9.36;55.88;100912.50;4236393;28;20905;-64
2023/05/28 02:25:30;;;;;;;3.67;1.70;;;;;;;9.31;55.54;100903.91;4237235;28;20249;-65
2023/05/28 02:27:58;;;;;;;4.87;1.93;;;;;;;9.45;55.50;100911.72;4242361;28;20247;-64
2023/05/28 02:30:24;;;;;;;5.90;1.83;;;;;;;9.43;55.53;100911.00;4220712;28;20504;-65
2023/05/28 02:32:51;;;;;;;4.47;1.80;;;;;;;9.36;55.62;100912.50;4241108;28;20254;-63
2023/05/28 02:35:19;;;;;;;4.93;1.70;;;;;;;9.43;55.42;100910.16;4234840;28;21934;-62
2023/05/28 02:37:46;;;;;;;7.87;2.00;;;;;;;9.41;55.57;100912.09;4245216;28;20239;-64
2023/05/28 02:40:13;;;;;;;5.77;2.00;;;;;;;9.38;55.95;100907.81;4226302;28;20229;-65
2023/05/28 02:42:40;;;;;;;6.33;1.93;;;;;;;9.38;56.17;100905.13;4228850;28;20239;-65
2023/05/28 02:45:06;;;;;;;5.30;2.07;;;;;;;9.19;57.60;100913.91;4233031;28;20294;-65
2023/05/28 02:47:33;;;;;;;4.07;2.10;;;;;;;9.05;58.30;100912.31;4225689;28;20422;-62
2023/05/28 02:50:00;;;;;;;8.93;2.37;;;;;;;8.93;58.84;100907.94;4238448;28;20230;-64
2023/05/28 02:52:26;;;;;;;9.27;2.50;;;;;;;8.94;58.98;100901.56;4243642;28;20235;-65
2023/05/28 02:54:53;;;;;;;7.77;2.60;;;;;;;8.84;59.69;100906.81;4231756;28;22075;-64
2023/05/28 02:57:19;;;;;;;11.27;3.03;;;;;;;8.71;60.38;100915.94;4247084;28;21935;-64
2023/05/28 02:59:48;;;;;;;11.63;2.60;;;;;;;8.60;60.93;100910.53;4254324;28;20235;-65
2023/05/28 03:02:15;;;;;;;7.67;2.60;;;;;;;8.62;61.11;100913.97;4254474;28;21211;-67
2023/05/28 03:04:41;;;;;;;11.17;2.87;;;;;;;8.80;60.02;100908.06;4239009;28;21195;-65
2023/05/28 03:07:08;;;;;;;6.93;2.47;;;;;;;8.97;58.91;100912.97;4271227;28;20235;-65
2023/05/28 03:09:37;;;;;;;10.03;2.60;;;;;;;9.02;58.94;100915.28;4245286;28;20238;-66
2023/05/28 03:12:04;;;;;;;7.70;2.60;;;;;;;8.96;59.54;100910.38;4236558;28;20234;-63
2023/05/28 03:14:30;;;;;;;6.93;2.70;;;;;;;8.84;59.96;100918.50;4246690;28;20422;-64
2023/05/28 03:16:57;;;;;;;6.17;2.60;;;;;;;8.92;59.89;100911.63;4245184;28;21223;-64
2023/05/28 03:19:24;;;;;;;8.53;2.97;;;;;;;8.98;59.70;100916.50;4235896;28;20256;-66
2023/05/28 03:21:50;;;;;;;6.70;2.13;;;;;;;9.06;59.41;100910.50;4234903;28;21786;-65
2023/05/28 03:24:17;;;;;;;8.70;2.60;;;;;;;9.20;58.82;100921.03;4243343;28;20235;-63
2023/05/28 03:26:44;;;;;;;6.07;2.50;;;;;;;9.04;59.63;100916.00;4255002;28;20906;-63
2023/05/28 03:29:10;;;;;;;12.73;3.10;;;;;;;9.18;58.80;100921.13;4246476;28;20227;-65
2023/05/28 03:31:45;;;;;;;7.37;2.60;;;;;;;9.31;58.29;100918.28;4231665;28;22144;-64
2023/05/28 03:34:12;;;;;;;7.30;2.40;;;;;;;9.38;58.01;100920.47;4240092;28;21198;-62
2023/05/28 03:36:40;;;;;;;11.67;2.30;;;;;;;9.59;57.46;100924.06;4236657;28;20231;-62
2023/05/28 03:39:08;;;;;;;9.17;2.13;;;;;;;9.75;57.11;100917.34;4233197;28;20282;-67
2023/05/28 03:41:35;;;;;;;14.03;2.63;;;;;;;9.83;57.00;100925.69;4238802;28;20416;-63
2023/05/28 03:44:02;;;;;;;6.50;2.20;;;;;;;9.83;56.56;100933.78;4240995;28;20630;-64
2023/05/28 03:46:29;;;;;;;12.03;2.60;;;;;;;9.92;56.74;100929.47;4232243;28;20283;-64
2023/05/28 03:48:56;;;;;;;8.43;2.30;;;;;;;9.93;56.25;100934.72;4238091;28;20254;-66
2023/05/28 03:51:23;;;;;;;13.83;2.47;;;;;;;10.04;55.86;100928.41;4238463;28;22340;-62
2023/05/28 03:53:52;;;;;;;5.13;2.20;;;;;;;10.17;55.38;100921.91;4235768;28;22945;-65
2023/05/28 03:56:19;;;;;;;14.97;2.60;;;;;;;10.11;55.90;100923.34;4238846;28;20859;-66
2023/05/28 03:58:46;;;;;;;6.57;2.70;;;;;;;10.14;55.28;100928.47;4232218;28;20894;-66
2023/05/28 04:01:13;;;;;;;7.93;1.93;;;;;;;10.25;55.26;100931.13;4237275;28;22420;-64
2023/05/28 04:03:39;;;;;;;8.63;2.30;;;;;;;10.37;55.58;100936.47;4238835;28;22317;-64
2023/05/28 04:06:06;;;;;;;9.20;2.20;;;;;;;10.58;54.54;100934.56;4236010;28;20242;-68
2023/05/28 04:08:33;;;;;;;10.60;2.50;;;;;;;10.77;53.40;100935.66;4217925;28;20241;-64
2023/05/28 04:10:59;;;;;;;6.50;2.40;;;;;;;10.72;53.50;100927.94;4228898;28;20275;-63
2023/05/28 04:13:26;;;;;;;7.53;2.40;;;;;;;11.01;53.30;100946.16;4229725;28;20453;-64
2023/05/28 04:15:52;;;;;;;5.47;2.23;;;;;;;11.03;52.65;100936.03;4235334;28;20236;-65
2023/05/28 04:18:19;;;;;;;6.60;2.33;;;;;;;11.24;52.35;100932.38;4219825;28;20246;-64
2023/05/28 04:20:46;;;;;;;6.87;2.40;;;;;;;11.22;53.20;100924.41;4234149;28;20294;-66
2023/05/28 04:23:13;;;;;;;6.13;2.23;;;;;;;11.31;51.99;100919.97;4234002;28;20232;-66
2023/05/28 04:25:39;;;;;;;9.93;2.40;;;;;;;11.37;52.23;100919.41;4224282;28;20366;-63
2023/05/28 04:28:06;;;;;;;7.50;2.30;;;;;;;11.32;52.68;100924.41;4220377;28;20290;-63
2023/05/28 04:30:32;;;;;;;11.60;2.70;;;;;;;11.51;52.17;100925.44;4228880;28;23589;-63
2023/05/28 04:32:59;;;;;;;9.87;2.50;;;;;;;11.58;51.20;100930.13;4231941;28;20365;-65
2023/05/28 04:35:26;;;;;;;8.27;2.50;;;;;;;11.49;51.14;100922.00;4227813;28;20932;-64
2023/05/28 04:37:53;;;;;;;8.67;2.23;;;;;;;11.56;52.14;100924.00;4233112;28;20228;-62
2023/05/28 04:40:21;;;;;;;6.80;2.17;;;;;;;11.59;51.38;100917.47;4234333;28;20548;-63
2023/05/28 04:42:47;;;;;;;8.77;2.10;;;;;;;11.80;51.40;100916.44;4223929;28;20235;-66
2023/05/28 04:45:14;;;;;;;5.60;2.30;;;;;;;11.99;51.40;100916.44;4240066;28;20292;-64
2023/05/28 04:47:41;;;;;;;6.83;2.10;;;;;;;12.17;50.72;100915.72;4237903;28;20324;-64
2023/05/28 04:50:09;;;;;;;8.77;2.20;;;;;;;12.31;49.90;100919.84;4227844;28;20566;-65
2023/05/28 04:52:37;;;;;;;7.23;2.13;;;;;;;12.40;49.87;100909.94;4224455;28;20235;-65
2023/05/28 04:55:05;;;;;;;9.63;2.60;;;;;;;12.51;49.76;100912.47;4232299;28;23456;-63
2023/05/28 04:57:32;;;;;;;8.27;2.40;;;;;;;12.63;49.14;100905.84;4237575;28;20479;-64
2023/05/28 04:59:59;;;;;;;6.10;1.93;;;;;;;12.70;48.83;100911.53;4224929;28;20446;-65
2023/05/28 05:02:25;;;;;;;6.77;1.93;;;;;;;12.97;48.32;100910.69;4234753;28;20809;-64
2023/05/28 05:04:52;;;;;;;10.33;1.73;;;;;;;13.02;47.53;100903.94;4230426;28;20246;-66
2023/05/28 05:07:20;;;;;;;11.13;2.23;;;;;;;13.15;47.65;100904.44;4225993;28;20349;-63
2023/05/28 05:09:47;;;;;;;5.77;1.90;;;;;;;13.28;46.15;100910.34;4226338;28;20235;-65
2023/05/28 05:12:13;;;;;;;7.73;2.00;;;;;;;13.43;46.23;100905.28;4232619;28;20228;-65
2023/05/28 05:14:40;;;;;;;6.07;2.27;;;;;;;13.43;46.54;100918.88;4221275;28;20380;-65
2023/05/28 05:17:08;;;;;;;8.97;1.80;;;;;;;13.64;44.61;100906.81;4224358;28;20227;-64
2023/05/28 05:19:35;;;;;;;13.63;2.00;;;;;;;13.88;44.40;100906.19;4240561;28;23149;-67
2023/05/28 05:22:03;;;;;;;4.70;1.73;;;;;;;14.16;43.69;100900.59;4237750;28;20505;-62
2023/05/28 05:24:31;;;;;;;5.43;1.70;;;;;;;14.21;43.28;100906.44;4237749;28;21128;-64
2023/05/28 05:26:58;;;;;;;10.17;1.60;;;;;;;14.41;42.72;100908.94;4231024;28;20237;-64
2023/05/28 05:29:25;;;;;;;7.77;1.63;;;;;;;14.88;42.07;100905.78;4247011;28;20237;-65
2023/05/28 05:31:51;;;;;;;3.90;1.70;;;;;;;14.94;42.29;100915.19;4228373;28;20410;-65
2023/05/28 05:34:18;;;;;;;5.03;1.60;;;;;;;15.04;41.03;100904.16;4233240;28;20687;-62
2023/05/28 05:36:45;;;;;;;8.77;1.80;;;;;;;15.62;40.08;100904.25;4244215;28;22252;-65
2023/05/28 05:39:12;;;;;;;8.70;1.67;;;;;;;16.04;39.47;100896.97;4233490;28;20247;-64
2023/05/28 05:41:39;;;;;;;3.90;1.40;;;;;;;16.06;38.39;100886.72;4239533;28;20246;-65
2023/05/28 05:44:06;;;;;;;7.67;1.53;;;;;;;16.86;38.09;100898.63;4243453;28;20416;-66
2023/05/28 05:46:32;;;;;;;5.43;1.47;;;;;;;17.76;35.62;100904.63;4235268;28;20329;-65
2023/05/28 05:48:59;;;;;;;7.33;1.70;;;;;;;17.51;35.46;100889.22;4231501;28;20235;-62
2023/05/28 05:51:26;;;;;;;3.83;1.47;;;;;;;17.70;34.54;100898.84;4245106;28;20227;-65
2023/05/28 05:53:52;;;;;;;5.53;1.60;;;;;;;19.07;33.37;100894.19;4239840;28;20778;-63
2023/05/28 05:56:19;;;;;;;6.07;1.43;;;;;;;18.63;33.05;100884.94;4234807;28;20669;-64
2023/05/28 05:58:45;;;;;;;8.10;1.80;;;;;;;19.22;32.84;100891.38;4239881;28;21187;-66
2023/05/28 06:01:16;;;;;;;6.40;1.80;;;;;;;19.38;32.25;100900.44;4239590;28;20235;-63
2023/05/28 06:03:43;;;;;;;7.00;1.80;;;;;;;19.37;31.67;100891.34;4240734;28;22872;-66
2023/05/28 06:06:10;;;;;;;6.43;1.83;;;;;;;19.26;32.15;100894.63;4244333;28;25382;-63
2023/05/28 06:08:36;;;;;;;6.43;1.50;;;;;;;20.00;31.60;100887.13;4246129;28;20242;-63
2023/05/28 06:11:03;;;;;;;5.17;1.43;;;;;;;19.49;32.32;100891.69;4235619;28;20830;-66
2023/05/28 06:13:29;;;;;;;7.40;2.07;;;;;;;19.58;32.42;100893.28;4227601;28;21748;-64
2023/05/28 06:15:56;;;;;;;7.60;1.93;;;;;;;19.75;32.50;100893.84;4235609;28;22246;-66
2023/05/28 06:18:23;;;;;;;6.37;1.70;;;;;;;19.99;32.39;100899.16;4242283;28;20237;-66
2023/05/28 06:20:50;;;;;;;8.50;1.90;;;;;;;20.15;30.53;100893.38;4230781;28;20258;-62
2023/05/28 06:23:17;;;;;;;6.03;1.70;;;;;;;21.02;29.31;100887.56;4248181;28;20373;-65
2023/05/28 06:25:44;;;;;;;7.63;2.00;;;;;;;21.73;28.36;100894.53;4254454;28;20757;-68
2023/05/28 06:28:10;;;;;;;7.27;1.47;;;;;;;22.41;27.49;100896.25;4233717;28;20822;-69
2023/05/28 06:30:37;;;;;;;7.13;1.27;;;;;;;22.43;27.74;100890.53;4248078;28;21194;-69
2023/05/28 06:35:12;;;;;;;5.97;1.50;;;;;;;22.21;27.43;100889.88;4258068;28;20539;-68
2023/05/28 06:37:38;;;;;;;6.70;1.63;;;;;;;21.25;28.77;100897.38;4223324;28;20236;-75
2023/05/28 06:40:09;;;;;;;5.73;1.40;;;;;;;21.50;28.59;100887.47;4255170;28;20292;-66
2023/05/28 06:42:37;;;;;;;4.87;1.40;;;;;;;20.98;28.61;100886.25;4236013;28;20852;-68
2023/05/28 06:45:05;;;;;;;3.77;1.20;;;;;;;20.59;29.09;100878.44;4230018;28;20239;-69
2023/05/28 06:47:32;;;;;;;3.93;1.03;;;;;;;20.67;28.16;100876.56;4227361;28;20248;-67
2023/05/28 06:53:18;;;;;;;5.80;1.37;;;;;;;20.59;29.43;100878.44;4263224;27;21047;-66
2023/05/28 06:55:45;;;;;;;3.50;1.23;;;;;;;20.41;28.07;100880.88;4242285;28;20268;-62
2023/05/28 06:58:11;;;;;;;6.10;1.40;;;;;;;21.13;27.28;100875.09;4259432;28;20728;-63
2023/05/28 07:00:38;;;;;;;7.43;1.40;;;;;;;20.82;27.43;100877.31;4252428;28;20652;-63
2023/05/28 07:03:05;;;;;;;4.67;1.33;;;;;;;20.59;28.44;100877.59;4248228;28;21081;-66
2023/05/28 07:05:32;;;;;;;6.10;1.20;;;;;;;21.52;27.31;100881.78;4256240;28;20235;-62
2023/05/28 07:07:59;;;;;;;6.03;1.30;;;;;;;20.87;27.83;100888.56;4260418;28;20302;-65
2023/05/28 07:16:00;;;;;;;8.70;1.20;;;;;;;20.27;28.47;100878.03;4296501;27;20560;-64
2023/05/28 07:18:27;;;;;;;7.07;1.20;;;;;;;20.11;28.36;100878.34;4276342;28;20420;-63
2023/05/28 07:20:53;;;;;;;9.20;1.30;;;;;;;20.55;28.64;100868.91;4300741;27;23454;-64
2023/05/28 07:23:20;;;;;;;7.50;1.10;;;;;;;21.06;27.55;100861.31;4287145;27;20234;-64
2023/05/28 07:25:47;;;;;;;2.03;0.63;;;;;;;21.12;25.30;100868.75;4286901;27;20232;-64
2023/05/28 07:28:14;;;;;;;3.80;1.07;;;;;;;20.04;27.37;100869.19;4291665;27;20228;-65
2023/05/28 07:30:41;;;;;;;9.60;1.20;;;;;;;19.88;28.74;100881.31;4295730;27;21638;-65
2023/05/28 07:33:08;;;;;;;2.00;0.90;;;;;;;20.13;27.68;100880.88;4288464;27;20410;-66
2023/05/28 07:35:35;;;;;;;6.70;1.30;;;;;;;20.79;26.81;100863.97;4261490;27;20241;-68
2023/05/28 07:38:02;;;;;;;4.63;0.80;;;;;;;20.92;27.00;100865.06;4296790;27;20232;-67
2023/05/28 07:40:28;;;;;;;5.63;1.27;;;;;;;20.95;25.92;100864.69;4286353;27;22702;-67
2023/05/28 07:42:55;;;;;;;4.63;0.90;;;;;;;20.31;27.21;100873.00;4289060;27;20785;-66
2023/05/28 07:45:21;;;;;;;4.10;1.03;;;;;;;20.06;28.31;100856.94;4291032;27;20225;-67
2023/05/28 07:47:48;;;;;;;7.10;1.20;;;;;;;19.61;28.36;100867.31;4293101;27;21256;-65
2023/05/28 07:50:15;;;;;;;7.23;1.17;;;;;;;20.22;27.12;100858.53;4298772;27;20228;-67
2023/05/28 07:52:41;;;;;;;6.00;1.10;;;;;;;19.32;29.35;100859.00;4277234;27;20229;-66
2023/05/28 07:55:08;;;;;;;4.30;1.00;;;;;;;20.00;28.98;100854.13;4284050;27;23003;-67
2023/05/28 07:57:35;;;;;;;4.07;0.83;;;;;;;20.55;28.16;100852.41;4283383;27;20296;-67
2023/05/28 08:00:06;;;;;;;6.50;1.47;;;;;;;20.85;28.82;100851.28;4284470;27;20574;-68
2023/05/28 08:02:33;;;;;;;3.50;1.03;;;;;;;20.83;27.29;100851.50;4291022;27;20409;-67
2023/05/28 08:05:00;;;;;;;2.80;1.00;;;;;;;21.36;26.43;100842.56;4281151;27;21454;-68
2023/05/28 08:07:28;;;;;;;4.47;1.10;;;;;;;20.82;26.90;100849.78;4279478;27;20240;-68
2023/05/28 08:09:54;;;;;;;6.83;0.80;;;;;;;20.78;27.18;100839.41;4280695;28;20647;-68
2023/05/28 08:12:21;;;;;;;4.43;0.93;;;;;;;20.18;28.33;100850.88;4287640;27;20229;-67
2023/05/28 08:14:48;;;;;;;2.70;1.00;;;;;;;19.31;29.27;100851.81;4277289;27;20249;-69
2023/05/28 08:17:14;;;;;;;4.63;1.00;;;;;;;19.33;30.19;100846.16;4307764;27;20224;-69
2023/05/28 08:19:41;;;;;;;4.13;1.00;;;;;;;19.41;29.61;100845.97;4301419;27;20226;-68
2023/05/28 08:22:15;;;;;;;6.53;1.00;;;;;;;19.00;30.53;100852.94;4291188;27;20326;-68
2023/05/28 08:24:42;;;;;;;5.63;1.20;;;;;;;19.11;30.87;100845.25;4280908;27;21400;-67
2023/05/28 08:27:08;;;;;;;4.53;1.20;;;;;;;19.35;30.45;100846.78;4288000;28;20233;-69
2023/05/28 08:29:35;;;;;;;5.13;0.90;;;;;;;19.24;30.15;100842.66;4296671;27;21068;-69
2023/05/28 08:32:02;;;;;;;6.73;1.13;;;;;;;19.88;29.69;100840.97;4269860;28;20594;-68
2023/05/28 08:34:28;;;;;;;6.83;1.30;;;;;;;20.19;29.31;100833.34;4280833;28;20267;-67
2023/05/28 08:36:55;;;;;;;10.33;1.03;;;;;;;20.40;28.55;100829.69;4286944;27;20237;-68
2023/05/28 08:39:24;;;;;;;3.50;1.00;;;;;;;;;;4289322;27;20238;-68
2023/05/28 08:41:50;;;;;;;2.77;1.07;;;;;;;19.78;29.76;100829.44;4281131;28;20237;-69
2023/05/28 08:44:17;;;;;;;3.93;0.97;;;;;;;19.95;28.86;100836.38;4286811;28;22762;-69
2023/05/28 08:46:43;;;;;;;7.13;0.90;;;;;;;20.08;29.41;100827.38;4278432;28;20299;-68
2023/05/28 08:49:11;;;;;;;4.30;1.10;;;;;;;19.96;30.12;100831.72;4268417;28;20244;-68
2023/05/28 08:51:39;;;;;;;3.23;1.10;;;;;;;19.47;30.33;100827.88;4248496;28;21102;-68
2023/05/28 08:54:08;;;;;;;3.90;1.17;;;;;;;18.67;31.67;100827.81;4259734;28;20230;-68
2023/05/28 08:56:35;;;;;;;3.43;1.03;;;;;;;18.65;32.31;100827.19;4245681;28;20233;-67
2023/05/28 08:59:03;;;;;;;4.93;1.10;;;;;;;19.47;30.91;100825.13;4276235;28;20737;-68
2023/05/28 09:01:32;;;;;;;5.67;1.10;;;;;;;19.64;30.85;100823.81;4262325;28;21763;-68
2023/05/28 09:04:00;;;;;;;5.70;1.00;;;;;;;19.91;30.13;100814.97;4267225;28;25464;-67
2023/05/28 09:06:30;;;;;;;10.07;1.20;;;;;;;19.51;30.79;100831.97;4286725;28;20233;-66
2023/05/28 09:08:57;;;;;;;12.43;1.37;;;;;;;19.53;30.52;100829.84;4288188;27;22330;-65
2023/05/28 09:11:24;;;;;;;6.83;1.00;;;;;;;19.49;31.16;100831.28;4277718;27;20865;-66
2023/05/28 09:13:51;;;;;;;14.20;1.53;;;;;;;19.68;29.83;100824.28;4253759;28;20287;-66
2023/05/28 09:16:21;;;;;;;5.23;0.97;;;;;;;19.93;29.24;100813.72;4268157;28;21738;-67
2023/05/28 09:18:50;;;;;;;13.50;1.27;;;;;;;18.90;30.00;100813.97;4252476;28;20234;-67
2023/05/28 09:21:20;;;;;;;5.13;1.10;;;;;;;19.50;31.12;100818.41;4267193;28;22893;-67
2023/05/28 09:23:52;;;;;;;8.73;1.13;;;;;;;19.74;29.58;100807.00;4285936;27;20233;-69
2023/05/28 09:26:22;;;;;;;10.50;1.40;;;;;;;19.55;30.25;100804.94;4277944;28;20346;-69
2023/05/28 09:28:49;;;;;;;3.13;1.00;;;;;;;19.94;29.51;100804.44;4279844;28;20221;-68
2023/05/28 09:31:16;;;;;;;12.23;1.30;;;;;;;19.52;30.03;100805.34;4259832;28;20290;-69
2023/05/28 09:33:44;;;;;;;5.07;1.20;;;;;;;19.57;31.01;100800.94;4262915;28;20527;-68
2023/05/28 09:36:11;;;;;;;2.83;1.20;;;;;;;19.68;30.09;100793.19;4276777;28;20305;-68
2023/05/28 09:38:39;;;;;;;9.63;1.00;;;;;;;19.57;30.13;100780.88;4259684;28;20249;-68
2023/05/28 09:41:19;;;;;;;5.43;1.00;;;;;;;19.28;30.82;100791.81;4268743;28;20330;-68
2023/05/28 09:43:47;;;;;;;3.80;1.10;;;;;;;19.84;30.69;100781.09;4258405;28;20304;-69
2023/05/28 09:46:13;;;;;;;5.23;1.20;;;;;;;19.67;29.92;100777.78;4262321;28;20225;-67
2023/05/28 09:48:40;;;;;;;5.57;1.20;;;;;;;19.45;30.70;100778.66;4258906;28;20234;-66
2023/05/28 09:51:07;;;;;;;8.53;1.20;;;;;;;19.73;30.59;100777.00;4266248;28;22783;-68
2023/05/28 09:53:36;;;;;;;6.80;1.20;;;;;;;19.59;30.62;100776.03;4256285;28;20238;-66
2023/05/28 09:56:02;;;;;;;3.83;1.03;;;;;;;19.93;29.57;100769.75;4262845;28;20623;-67
2023/05/28 09:58:34;;;;;;;3.23;0.83;;;;;;;20.21;29.62;100768.88;4271130;28;20442;-44
2023/05/28 10:01:04;;;;;;;5.27;0.90;;;;;;;20.56;28.93;100766.09;4278623;27;20236;-45
2023/05/28 10:03:43;;;;;;;6.33;1.13;;;;;;;19.37;30.26;100770.56;4276340;28;20231;-41
2023/05/28 10:06:14;;;;;;;4.07;1.13;;;;;;;19.44;30.89;100765.16;4256495;28;20337;-44
2023/05/28 10:08:42;;;;;;;7.00;1.27;;;;;;;19.86;30.43;100755.13;4289284;28;20637;-69
2023/05/28 10:11:12;;;;;;;3.60;1.20;;;;;;;19.19;30.24;100753.72;4258324;28;20230;-68
2023/05/28 10:13:40;;;;;;;9.83;1.23;;;;;;;19.43;30.41;100760.69;4269174;28;20232;-70
2023/05/28 10:16:07;;;;;;;4.60;1.23;;;;;;;19.63;31.78;100749.88;4256411;28;20396;-69
2023/05/28 10:18:35;;;;;;;3.30;1.10;;;;;;;19.58;31.19;100749.63;4272002;28;22050;-71
2023/05/28 10:21:05;;;;;;;7.73;1.30;;;;;;;19.25;31.02;100755.69;4266924;27;22738;-78
2023/05/28 10:23:33;;;;;;;5.43;1.40;;;;;;;19.74;31.23;100759.47;4281453;28;20241;-69
2023/05/28 10:25:59;;;;;;;4.60;1.30;;;;;;;20.13;30.99;100762.69;4275871;28;20289;-67
2023/05/28 10:28:29;;;;;;;7.50;1.23;;;;;;;19.78;30.94;100758.00;4265298;28;20249;-68
2023/05/28 10:31:04;;;;;;;5.50;1.37;;;;;;;19.53;30.44;100750.22;4262415;27;20557;-68
2023/05/28 10:33:36;;;;;;;5.97;1.50;;;;;;;19.52;31.05;100745.78;4274619;28;20254;-71
2023/05/28 10:36:03;;;;;;;13.97;1.37;;;;;;;19.80;32.25;100745.75;4265412;28;20233;-67
2023/05/28 10:38:30;;;;;;;5.57;1.40;;;;;;;20.02;30.67;100742.13;4267421;28;21772;-71
2023/05/28 10:41:01;;;;;;;5.80;1.13;;;;;;;19.80;30.50;100739.44;4271402;28;20310;-67
2023/05/28 10:43:41;;;;;;;3.60;1.40;;;;;;;19.50;30.61;100730.53;4256110;28;20407;-66
2023/05/28 10:46:12;;;;;;;9.00;1.70;;;;;;;19.69;31.51;100732.59;4284681;28;23841;-70
2023/05/28 10:49:03;;;;;;;3.20;1.13;;;;;;;19.77;30.45;100728.84;4268410;27;21776;-70
2023/05/28 10:51:54;;;;;;;3.37;1.53;;;;;;;19.70;31.40;100728.81;4280686;28;21682;-67
2023/05/28 10:54:40;;;;;;;3.63;1.50;;;;;;;20.13;30.22;100722.31;4278568;27;20229;-67
2023/05/28 10:57:08;;;;;;;5.93;1.63;;;;;;;20.25;30.49;100728.06;4272371;27;20234;-67
2023/05/28 10:59:45;;;;;;;7.07;1.40;;;;;;;20.17;30.05;100720.00;4245957;28;20483;-70
2023/05/28 11:02:16;;;;;;;7.63;1.43;;;;;;;19.97;29.44;100718.00;4268939;28;21669;-75
2023/05/28 11:04:42;;;;;;;7.13;1.50;;;;;;;19.80;30.61;100717.47;4275742;28;20305;-68
2023/05/28 11:07:09;;;;;;;6.33;1.30;;;;;;;19.54;31.14;100720.88;4277037;28;20239;-72
2023/05/28 11:09:36;;;;;;;7.03;1.73;;;;;;;19.77;30.66;100721.47;4262650;28;20318;-71
2023/05/28 11:12:02;;;;;;;3.27;1.50;;;;;;;19.89;29.86;100723.66;4273706;28;20233;-70
2023/05/28 11:14:36;;;;;;;6.43;1.37;;;;;;;20.02;29.73;100722.91;4259930;28;20225;-69
2023/05/28 11:17:07;;;;;;;4.20;1.40;;;;;;;20.45;29.55;100719.91;4261968;28;20233;-70
2023/05/28 11:19:45;;;;;;;4.07;1.63;;;;;;;20.44;29.57;100707.22;4271952;28;20559;-68
2023/05/28 11:22:13;;;;;;;2.93;1.20;;;;;;;20.70;29.82;100700.94;4255342;28;21113;-71
2023/05/28 12:33:04;;;;;;;6.83;1.40;;;;;;;21.63;28.47;100654.44;4273700;27;20941;-69
2023/05/28 12:35:31;;;;;;;6.07;1.30;;;;;;;21.56;28.60;100651.66;4252586;28;20233;-62
2023/05/28 12:37:57;;;;;;;3.97;1.27;;;;;;;21.65;28.55;100653.16;4255421;28;20235;-62
2023/05/28 12:40:24;;;;;;;4.33;1.40;;;;;;;21.91;28.09;100650.53;4259162;28;20235;-63
2023/05/28 12:42:51;;;;;;;8.37;1.60;;;;;;;21.46;28.54;100646.59;4250375;28;20551;-62
2023/05/28 12:45:17;;;;;;;3.80;1.13;;;;;;;21.34;28.60;100638.13;4276441;28;20568;-63
2023/05/28 12:47:44;;;;;;;5.07;1.27;;;;;;;21.66;30.11;100643.84;4256602;28;21190;-64
2023/05/28 12:50:11;;;;;;;9.37;1.40;;;;;;;22.25;27.95;100649.31;4254330;28;22841;-60